Hlavní strana
METAR-TAF:

METAR-TAF

Letiště :

Skövde, Švédsko

zeměpisná šířka: 58-27N, zeměpisná délka: 013-58E, výška: 98 m

Aktuální stav počasí

Zpráva byla vytvořena před 25 minutami, v 09:50 UTC
Jihojihozápadní vítr 12 kt
Teplota 7°C
Vlhkost vzduchu 81%
Tlak 1013 hPa
Viditelnost: 7000 m
kouřmo

METAR: ESGR 180950Z AUTO 20012KT 7000 BR FEW017/// 07/04 Q1013

Čas: 11:15 (10:15 UTC)


TAF: chybějící

Stav a předpovědi počasí z více než 4 000 letišť (zprávy METAR a TAF).

Červené a žluté tečky na mapě představují dostupné meteorologické stanice.

Když kurzor umístíte na tečku, zobrazí se název stanice.

Pak kliknutím zobrazíte stav a předpověď počasí.

Chcete-li změnit mapu, kliknutím na zelené tlačítko se znaménkem +mapu přiblížíte, kliknutím na zelené tlačítko se znaménkem – mapu oddálíte a kliknutím na zelené šipky přejdete na sousední mapy.


METAR-TAF: